createdAt,value
2022-10-08T00:01:29.057Z,7.45
2022-10-08T00:03:56.807Z,6.43
2022-10-08T00:06:28.372Z,6.15
2022-10-08T00:08:59.364Z,5.65
2022-10-08T00:11:27.334Z,5.53
2022-10-08T00:13:54.656Z,5.47
2022-10-08T00:16:28.113Z,6.38
2022-10-08T00:18:55.974Z,5.00
2022-10-08T00:21:24.349Z,5.10
2022-10-08T00:23:51.999Z,5.32
2022-10-08T00:26:23.547Z,5.20
2022-10-08T00:28:50.766Z,5.25
2022-10-08T00:31:19.809Z,6.40
2022-10-08T00:33:49.790Z,6.53
2022-10-08T00:36:17.490Z,6.55
2022-10-08T00:38:44.531Z,6.07
2022-10-08T00:41:19.046Z,6.90
2022-10-08T00:43:55.284Z,7.40
2022-10-08T00:46:26.970Z,6.78
2022-10-08T00:49:25.093Z,6.07
2022-10-08T00:51:55.519Z,5.80
2022-10-08T00:54:22.707Z,7.70
2022-10-08T00:56:50.357Z,6.97
2022-10-08T00:59:17.386Z,6.70
2022-10-08T01:01:44.501Z,6.45
2022-10-08T01:04:11.812Z,7.13
2022-10-08T01:06:54.579Z,6.43
2022-10-08T01:09:24.385Z,6.07
2022-10-08T01:11:56.751Z,6.07
2022-10-08T01:14:46.567Z,5.70
2022-10-08T01:17:13.698Z,5.73
2022-10-08T01:19:43.548Z,5.13
2022-10-08T01:22:29.647Z,5.88
2022-10-08T01:25:29.874Z,5.40
2022-10-08T01:28:00.932Z,5.07
2022-10-08T01:30:27.976Z,4.90
2022-10-08T01:32:57.607Z,5.50
2022-10-08T01:35:27.072Z,5.50
2022-10-08T01:37:55.868Z,5.00
2022-10-08T01:40:25.354Z,4.47
2022-10-08T01:42:52.418Z,4.63
2022-10-08T01:45:20.679Z,4.97
2022-10-08T01:47:47.674Z,4.80
2022-10-08T01:50:16.958Z,5.32
2022-10-08T01:52:46.134Z,4.95
2022-10-08T01:55:15.799Z,4.90
2022-10-08T01:57:42.853Z,4.57
2022-10-08T02:00:10.822Z,4.07
2022-10-08T02:02:37.992Z,4.10
2022-10-08T02:05:05.260Z,4.13
2022-10-08T02:07:32.981Z,4.93
2022-10-08T02:10:09.171Z,5.25
2022-10-08T02:12:36.471Z,4.57
2022-10-08T02:15:04.474Z,4.80
2022-10-08T02:17:40.952Z,5.43
2022-10-08T02:20:19.346Z,5.63
2022-10-08T02:23:06.599Z,5.00
2022-10-08T02:25:37.451Z,6.45
2022-10-08T02:28:04.479Z,5.82
2022-10-08T02:30:33.110Z,5.70
2022-10-08T02:33:03.973Z,6.63
2022-10-08T02:35:36.507Z,7.07
2022-10-08T02:38:05.987Z,7.28
2022-10-08T02:40:32.993Z,6.43
2022-10-08T02:43:02.127Z,6.28
2022-10-08T02:45:30.177Z,6.60
2022-10-08T02:48:02.250Z,5.68
2022-10-08T02:50:29.302Z,5.80
2022-10-08T02:52:56.324Z,6.47
2022-10-08T02:55:42.059Z,5.97
2022-10-08T02:58:09.774Z,5.47
2022-10-08T03:00:38.088Z,5.60
2022-10-08T03:03:10.201Z,5.90
2022-10-08T03:05:38.197Z,6.93
2022-10-08T03:08:06.018Z,7.25
2022-10-08T03:10:34.335Z,7.20
2022-10-08T03:13:01.785Z,7.13
2022-10-08T03:15:29.377Z,6.72
2022-10-08T03:17:56.383Z,6.65
2022-10-08T03:20:23.391Z,7.95
2022-10-08T03:22:50.470Z,12.32
2022-10-08T03:25:17.465Z,12.15
2022-10-08T03:27:44.494Z,12.75
2022-10-08T03:30:11.957Z,14.50
2022-10-08T03:32:38.947Z,15.65
2022-10-08T03:35:06.051Z,13.65
2022-10-08T03:37:33.066Z,12.77
2022-10-08T03:40:00.079Z,12.43
2022-10-08T03:42:27.092Z,12.07
2022-10-08T03:44:54.348Z,10.88
2022-10-08T03:47:21.370Z,14.35
2022-10-08T03:49:48.375Z,11.65
2022-10-08T03:52:15.382Z,10.48
2022-10-08T03:54:42.389Z,11.07
2022-10-08T03:57:09.449Z,11.38
2022-10-08T03:59:36.460Z,10.80
2022-10-08T04:02:03.522Z,9.02
2022-10-08T04:04:30.515Z,8.25
2022-10-08T04:06:57.548Z,9.10
2022-10-08T04:09:24.601Z,8.80
2022-10-08T04:11:51.603Z,8.85
2022-10-08T04:14:18.610Z,9.88
2022-10-08T04:16:45.607Z,8.75
2022-10-08T04:19:12.693Z,8.40
2022-10-08T04:21:39.683Z,7.80
2022-10-08T04:24:06.816Z,7.20
2022-10-08T04:26:33.824Z,8.27
2022-10-08T04:29:00.853Z,7.57
2022-10-08T04:31:27.928Z,8.95
2022-10-08T04:33:54.993Z,8.55
2022-10-08T04:36:22.851Z,10.63
2022-10-08T04:38:49.919Z,11.40
2022-10-08T04:41:21.592Z,10.95
2022-10-08T04:43:48.667Z,9.95
2022-10-08T04:46:16.608Z,9.93
2022-10-08T04:48:47.496Z,8.38
2022-10-08T04:51:14.612Z,8.65
2022-10-08T04:53:41.679Z,8.18
2022-10-08T04:56:09.560Z,9.15
2022-10-08T04:58:36.554Z,10.82
2022-10-08T05:01:04.671Z,9.93
2022-10-08T05:03:31.743Z,9.10
2022-10-08T05:05:58.739Z,8.63
2022-10-08T05:08:25.772Z,8.30
2022-10-08T05:10:52.811Z,7.53
2022-10-08T05:13:19.812Z,7.45
2022-10-08T05:15:46.944Z,9.60
2022-10-08T05:18:13.964Z,10.05
2022-10-08T05:20:41.009Z,9.90
2022-10-08T05:23:08.069Z,12.35
2022-10-08T05:25:35.133Z,13.05
2022-10-08T05:28:02.519Z,13.10
2022-10-08T05:30:29.569Z,16.30
2022-10-08T05:32:56.606Z,14.52
2022-10-08T05:35:23.611Z,15.82
2022-10-08T05:37:50.611Z,14.98
2022-10-08T05:40:17.720Z,16.95
2022-10-08T05:42:45.101Z,17.83
2022-10-08T05:45:12.300Z,18.08
2022-10-08T05:47:39.595Z,17.58
2022-10-08T05:50:06.756Z,12.02
2022-10-08T05:52:33.771Z,12.32
2022-10-08T05:55:00.786Z,10.95
2022-10-08T05:57:28.697Z,9.52
2022-10-08T05:59:55.791Z,11.00
2022-10-08T06:02:22.829Z,11.80
2022-10-08T06:04:50.267Z,13.50
2022-10-08T06:07:17.304Z,17.75
2022-10-08T06:09:45.009Z,19.38
2022-10-08T06:12:13.768Z,15.25
2022-10-08T06:14:41.134Z,14.80
2022-10-08T06:17:08.187Z,14.55
2022-10-08T06:19:37.025Z,14.80
2022-10-08T06:22:04.883Z,13.13
2022-10-08T06:24:31.973Z,13.75
2022-10-08T06:26:59.049Z,12.10
2022-10-08T06:29:26.043Z,11.85
2022-10-08T06:31:53.396Z,10.80
2022-10-08T06:34:20.532Z,10.90
2022-10-08T06:36:47.621Z,10.40
2022-10-08T06:39:15.242Z,12.38
2022-10-08T06:41:42.283Z,12.70
2022-10-08T06:44:10.979Z,11.75
2022-10-08T06:46:38.173Z,10.48
2022-10-08T06:49:07.983Z,10.75
2022-10-08T06:51:35.031Z,10.63
2022-10-08T06:54:07.481Z,9.98
2022-10-08T06:56:36.058Z,9.13
2022-10-08T06:59:03.291Z,8.57
2022-10-08T07:01:33.388Z,8.73
2022-10-08T07:04:01.484Z,8.27
2022-10-08T07:06:28.575Z,8.43
2022-10-08T07:08:55.891Z,8.20
2022-10-08T07:11:22.983Z,7.82
2022-10-08T07:13:49.576Z,8.60
2022-10-08T07:16:20.793Z,8.32
2022-10-08T07:18:51.810Z,8.80
2022-10-08T07:21:19.305Z,6.82
2022-10-08T07:23:46.132Z,7.20
2022-10-08T07:26:20.401Z,6.93
2022-10-08T07:29:06.754Z,5.70
2022-10-08T07:31:35.114Z,5.82
2022-10-08T07:34:03.499Z,5.45
2022-10-08T07:36:30.692Z,5.38
2022-10-08T07:38:58.349Z,6.28
2022-10-08T07:41:25.433Z,7.07
2022-10-08T07:43:53.042Z,6.55
2022-10-08T07:46:20.081Z,6.50
2022-10-08T07:48:47.156Z,7.43
2022-10-08T07:51:15.519Z,7.50
2022-10-08T07:53:42.634Z,7.80
2022-10-08T07:56:10.059Z,8.18
2022-10-08T07:58:37.087Z,7.60
2022-10-08T08:01:04.771Z,6.75
2022-10-08T08:03:31.808Z,5.20
2022-10-08T08:06:02.616Z,3.78
2022-10-08T08:08:29.676Z,3.53
2022-10-08T08:10:57.523Z,3.40
2022-10-08T08:13:24.545Z,3.13
2022-10-08T08:16:01.349Z,2.85
2022-10-08T08:18:28.688Z,3.00
2022-10-08T08:21:02.260Z,3.15
2022-10-08T08:23:30.287Z,3.60
2022-10-08T08:26:00.222Z,3.53
2022-10-08T08:28:27.287Z,3.67
2022-10-08T08:30:54.337Z,2.92
2022-10-08T08:33:21.326Z,3.10
2022-10-08T08:35:55.595Z,2.83
2022-10-08T08:38:22.670Z,3.25
2022-10-08T08:40:49.730Z,3.10
2022-10-08T08:43:16.734Z,3.30
2022-10-08T08:45:47.770Z,3.45
2022-10-08T08:48:24.046Z,3.72
2022-10-08T08:50:51.099Z,3.28
2022-10-08T08:53:17.734Z,3.88
2022-10-08T08:55:49.360Z,4.50
2022-10-08T08:58:25.804Z,4.30
2022-10-08T09:00:57.818Z,4.35
2022-10-08T09:03:41.567Z,3.70
2022-10-08T09:06:13.092Z,4.05
2022-10-08T09:08:57.924Z,7.30
2022-10-08T09:11:24.658Z,3.42
2022-10-08T09:14:10.648Z,3.60
2022-10-08T09:16:37.382Z,3.50
2022-10-08T09:19:04.032Z,3.38
2022-10-08T09:21:33.911Z,3.10
2022-10-08T09:24:00.957Z,3.88
2022-10-08T09:26:31.188Z,11.55
2022-10-08T09:28:58.757Z,3.90
2022-10-08T09:31:31.073Z,2.92
2022-10-08T09:34:06.850Z,2.67
2022-10-08T09:37:00.373Z,3.17
2022-10-08T09:39:28.808Z,2.60
2022-10-08T09:42:20.037Z,4.50
2022-10-08T09:44:50.172Z,2.72
2022-10-08T09:47:18.331Z,2.70
2022-10-08T09:49:49.662Z,3.30
2022-10-08T09:52:25.868Z,2.90
2022-10-08T09:54:55.875Z,3.05
2022-10-08T09:57:22.527Z,2.75
2022-10-08T09:59:57.850Z,3.25
2022-10-08T10:02:37.031Z,2.80
2022-10-08T10:05:16.281Z,2.65
2022-10-08T10:07:44.463Z,3.10
2022-10-08T10:10:32.911Z,3.90
2022-10-08T10:13:27.684Z,3.63
2022-10-08T10:15:58.988Z,4.00
2022-10-08T10:18:49.019Z,3.47
2022-10-08T10:21:18.185Z,4.40
2022-10-08T10:24:20.951Z,3.78
2022-10-08T10:26:47.541Z,3.92
2022-10-08T10:29:21.913Z,4.57
2022-10-08T10:31:55.268Z,4.05
2022-10-08T10:34:28.958Z,3.83
2022-10-08T10:37:06.179Z,4.60
2022-10-08T10:39:42.966Z,5.10
2022-10-08T10:42:18.412Z,3.80
2022-10-08T10:44:58.641Z,3.85
2022-10-08T10:47:31.836Z,3.67
2022-10-08T10:50:00.038Z,4.03
2022-10-08T10:52:35.603Z,3.88
2022-10-08T10:55:29.548Z,3.65
2022-10-08T10:58:34.691Z,3.92
2022-10-08T11:01:01.259Z,3.85
2022-10-08T11:03:39.741Z,3.30
2022-10-08T11:06:12.569Z,3.80
2022-10-08T11:08:56.320Z,3.47
2022-10-08T11:11:33.068Z,3.60
2022-10-08T11:13:59.940Z,3.63
2022-10-08T11:16:48.165Z,3.50
2022-10-08T11:19:36.859Z,3.67
2022-10-08T11:22:18.882Z,3.63
2022-10-08T11:25:00.120Z,3.38
2022-10-08T11:27:53.899Z,3.58
2022-10-08T11:30:29.340Z,4.05
2022-10-08T11:32:56.842Z,3.58
2022-10-08T11:35:40.401Z,3.47
2022-10-08T11:38:09.941Z,3.28
2022-10-08T11:40:41.391Z,3.00
2022-10-08T11:43:20.853Z,2.72
2022-10-08T11:45:49.766Z,2.95
2022-10-08T11:48:24.680Z,2.90
2022-10-08T11:50:51.697Z,3.67
2022-10-08T11:53:20.136Z,2.90
2022-10-08T11:55:50.258Z,2.85
2022-10-08T11:58:24.062Z,2.78
2022-10-08T12:00:51.299Z,2.70
2022-10-08T12:03:20.781Z,2.67
2022-10-08T12:05:50.560Z,2.28
2022-10-08T12:08:36.628Z,2.40
2022-10-08T12:11:26.924Z,5.95
2022-10-08T12:16:21.001Z,2.75
2022-10-08T12:18:47.662Z,2.15
2022-10-08T12:21:17.299Z,2.03
2022-10-08T12:23:44.781Z,2.22
2022-10-08T12:26:12.508Z,2.53
2022-10-08T12:28:44.057Z,2.15
2022-10-08T12:31:17.463Z,2.10
2022-10-08T12:33:44.514Z,2.08
2022-10-08T12:36:22.732Z,1.92
2022-10-08T12:39:01.027Z,1.90
2022-10-08T12:41:37.147Z,1.63
2022-10-08T12:44:19.310Z,1.80
2022-10-08T12:46:50.721Z,1.80
2022-10-08T12:49:32.418Z,1.92
2022-10-08T12:52:15.164Z,2.17
2022-10-08T12:54:47.099Z,2.80
2022-10-08T12:57:14.324Z,2.05
2022-10-08T12:59:41.831Z,2.28
2022-10-08T13:02:25.508Z,1.98
2022-10-08T13:04:52.535Z,2.28
2022-10-08T13:07:24.685Z,2.90
2022-10-08T13:09:54.381Z,2.13
2022-10-08T13:12:21.421Z,3.03
2022-10-08T13:14:48.421Z,1.92
2022-10-08T13:17:28.388Z,1.73
2022-10-08T13:20:24.648Z,1.90
2022-10-08T13:22:51.746Z,1.95
2022-10-08T13:25:35.207Z,2.10
2022-10-08T13:28:36.152Z,1.80
2022-10-08T13:31:16.243Z,2.20
2022-10-08T13:33:43.296Z,2.17
2022-10-08T13:36:10.306Z,2.45
2022-10-08T13:38:37.355Z,2.22
2022-10-08T13:41:06.262Z,2.00
2022-10-08T13:43:36.390Z,2.00
2022-10-08T13:46:03.455Z,1.98
2022-10-08T13:48:30.517Z,1.80
2022-10-08T13:50:57.610Z,3.78
2022-10-08T13:53:25.348Z,1.75
2022-10-08T13:55:52.384Z,1.80
2022-10-08T13:58:20.066Z,1.70
2022-10-08T14:00:47.640Z,1.67
2022-10-08T14:03:14.815Z,1.80
2022-10-08T14:05:42.727Z,1.85
2022-10-08T14:08:20.016Z,1.92
2022-10-08T14:10:47.105Z,1.80
2022-10-08T14:13:14.408Z,1.52
2022-10-08T14:15:41.454Z,1.70
2022-10-08T14:18:08.605Z,1.40
2022-10-08T14:20:35.929Z,2.10
2022-10-08T14:23:02.995Z,1.52
2022-10-08T14:25:31.033Z,1.30
2022-10-08T14:28:00.977Z,2.10
2022-10-08T14:30:28.144Z,2.47
2022-10-08T14:32:55.477Z,1.58
2022-10-08T14:35:22.636Z,1.52
2022-10-08T14:37:50.053Z,2.13
2022-10-08T14:40:21.684Z,1.55
2022-10-08T14:42:49.124Z,1.35
2022-10-08T14:45:16.395Z,1.17
2022-10-08T14:47:43.424Z,1.40
2022-10-08T14:50:10.496Z,1.33
2022-10-08T14:52:41.870Z,1.80
2022-10-08T14:55:11.290Z,1.27
2022-10-08T14:57:38.434Z,1.17
2022-10-08T15:00:05.944Z,1.05
2022-10-08T15:02:34.358Z,1.20
2022-10-08T15:05:01.684Z,1.25
2022-10-08T15:07:28.842Z,1.13
2022-10-08T15:09:55.894Z,1.25
2022-10-08T15:12:22.927Z,1.23
2022-10-08T15:14:49.954Z,1.00
2022-10-08T15:17:16.948Z,0.90
2022-10-08T15:19:44.008Z,1.42
2022-10-08T15:22:11.566Z,1.33
2022-10-08T15:24:38.578Z,1.20
2022-10-08T15:27:05.591Z,1.17
2022-10-08T15:29:32.678Z,1.02
2022-10-08T15:31:59.747Z,1.33
2022-10-08T15:34:26.867Z,1.48
2022-10-08T15:36:56.940Z,1.08
2022-10-08T15:39:24.332Z,1.13
2022-10-08T15:41:52.574Z,1.25
2022-10-08T15:44:20.418Z,1.48
2022-10-08T15:46:47.739Z,0.90
2022-10-08T15:49:14.787Z,1.20
2022-10-08T15:51:41.825Z,1.27
2022-10-08T15:54:08.514Z,1.13
2022-10-08T15:56:35.752Z,1.25
2022-10-08T15:59:03.006Z,1.60
2022-10-08T16:01:30.105Z,1.35
2022-10-08T16:03:57.610Z,1.40
2022-10-08T16:06:26.027Z,2.30
2022-10-08T16:08:53.220Z,1.40
2022-10-08T16:11:22.995Z,1.40
2022-10-08T16:13:50.836Z,1.60
2022-10-08T16:16:18.127Z,1.38
2022-10-08T16:18:52.848Z,1.38
2022-10-08T16:21:21.172Z,1.67
2022-10-08T16:23:47.884Z,1.70
2022-10-08T16:26:20.221Z,1.58
2022-10-08T16:28:48.444Z,1.48
2022-10-08T16:31:15.638Z,1.95
2022-10-08T16:33:42.677Z,1.55
2022-10-08T16:36:09.878Z,1.67
2022-10-08T16:38:37.883Z,2.50
2022-10-08T16:41:11.863Z,1.60
2022-10-08T16:43:38.854Z,1.65
2022-10-08T16:46:06.002Z,1.58
2022-10-08T16:48:33.048Z,1.60
2022-10-08T16:51:02.985Z,1.50
2022-10-08T16:53:29.990Z,1.98
2022-10-08T16:55:57.014Z,1.60
2022-10-08T16:58:24.048Z,1.38
2022-10-08T17:00:51.084Z,1.73
2022-10-08T17:03:18.095Z,1.90
2022-10-08T17:05:45.100Z,2.08
2022-10-08T17:08:12.148Z,2.10
2022-10-08T17:10:39.162Z,2.60
2022-10-08T17:13:06.184Z,1.80
2022-10-08T17:15:33.341Z,2.80
2022-10-08T17:18:00.382Z,2.75
2022-10-08T17:20:28.300Z,2.00
2022-10-08T17:22:55.292Z,2.30
2022-10-08T17:25:22.309Z,2.28
2022-10-08T17:27:49.294Z,2.33
2022-10-08T17:30:16.753Z,1.70
2022-10-08T17:32:43.786Z,1.70
2022-10-08T17:35:11.078Z,1.75
2022-10-08T17:37:38.150Z,1.55
2022-10-08T17:40:05.289Z,1.83
2022-10-08T17:42:32.319Z,1.77
2022-10-08T17:44:59.321Z,1.90
2022-10-08T17:47:29.176Z,1.50
2022-10-08T17:49:56.441Z,2.30
2022-10-08T17:52:23.557Z,2.30
2022-10-08T17:54:50.567Z,2.25
2022-10-08T17:57:17.574Z,2.10
2022-10-08T17:59:44.603Z,2.92
2022-10-08T18:02:12.586Z,2.67
2022-10-08T18:04:39.685Z,4.20
2022-10-08T18:07:06.752Z,3.53
2022-10-08T18:09:33.783Z,3.40
2022-10-08T18:12:00.841Z,3.58
2022-10-08T18:14:27.859Z,3.97
2022-10-08T18:16:54.909Z,3.67
2022-10-08T18:19:21.905Z,3.50
2022-10-08T18:21:48.976Z,3.53
2022-10-08T18:24:16.114Z,3.03
2022-10-08T18:26:43.209Z,3.10
2022-10-08T18:29:11.512Z,3.33
2022-10-08T18:31:39.061Z,3.53
2022-10-08T18:34:10.181Z,5.70
2022-10-08T18:36:37.969Z,3.83
2022-10-08T18:39:05.854Z,4.13
2022-10-08T18:41:33.852Z,4.78
2022-10-08T18:44:01.051Z,4.28
2022-10-08T18:46:28.246Z,4.50
2022-10-08T18:48:55.464Z,3.83
2022-10-08T18:51:23.340Z,3.80
2022-10-08T18:53:51.136Z,3.50
2022-10-08T18:56:22.385Z,3.63
2022-10-08T18:58:51.746Z,4.82
2022-10-08T19:01:22.963Z,4.95
2022-10-08T19:03:52.444Z,5.05
2022-10-08T19:06:19.888Z,5.47
2022-10-08T19:08:46.918Z,5.20
2022-10-08T19:11:20.842Z,5.03
2022-10-08T19:13:47.675Z,5.10
2022-10-08T19:16:15.173Z,6.05
2022-10-08T19:18:52.572Z,6.35
2022-10-08T19:21:19.347Z,8.45
2022-10-08T19:23:45.922Z,10.30
2022-10-08T19:26:12.655Z,9.88
2022-10-08T19:28:39.611Z,9.68
2022-10-08T19:31:23.159Z,10.50
2022-10-08T19:33:53.663Z,12.23
2022-10-08T19:36:20.500Z,16.90
2022-10-08T19:38:57.734Z,14.32
2022-10-08T19:41:25.766Z,12.50
2022-10-08T19:43:52.516Z,11.77
2022-10-08T19:46:19.333Z,10.77
2022-10-08T19:48:50.020Z,10.20
2022-10-08T19:53:43.368Z,10.38
2022-10-08T19:56:10.101Z,10.80
2022-10-08T19:58:43.933Z,11.48
2022-10-08T20:01:14.302Z,10.43
2022-10-08T20:03:41.080Z,9.73
2022-10-08T20:06:09.498Z,8.45
2022-10-08T20:08:36.283Z,8.38
2022-10-08T20:11:05.087Z,9.07
2022-10-08T20:13:31.812Z,10.10
2022-10-08T20:16:05.615Z,12.38
2022-10-08T20:18:32.352Z,10.80
2022-10-08T20:21:09.682Z,13.35
2022-10-08T20:23:36.620Z,15.13
2022-10-08T20:26:16.655Z,17.08
2022-10-08T20:28:58.422Z,14.75
2022-10-08T20:31:30.296Z,13.13
2022-10-08T20:33:58.264Z,12.00
2022-10-08T20:36:25.062Z,12.23
2022-10-08T20:38:52.040Z,14.13
2022-10-08T20:41:18.729Z,13.25
2022-10-08T20:43:45.803Z,15.48
2022-10-08T20:46:13.453Z,15.80
2022-10-08T20:48:41.059Z,16.58
2022-10-08T20:51:09.387Z,16.13
2022-10-08T20:53:36.418Z,14.52
2022-10-08T20:56:04.746Z,13.45
2022-10-08T20:58:32.652Z,12.80
2022-10-08T21:01:16.515Z,11.38
2022-10-08T21:03:44.207Z,11.43
2022-10-08T21:06:18.914Z,25.92
2022-10-08T21:08:46.766Z,25.00
2022-10-08T21:11:15.086Z,19.25
2022-10-08T21:13:42.124Z,19.05
2022-10-08T21:16:14.124Z,15.98
2022-10-08T21:18:41.100Z,15.38
2022-10-08T21:21:08.444Z,15.30
2022-10-08T21:23:35.244Z,14.80
2022-10-08T21:26:24.498Z,13.65
2022-10-08T21:29:01.072Z,14.35
2022-10-08T21:31:30.201Z,14.73
2022-10-08T21:33:56.901Z,14.25
2022-10-08T21:36:28.603Z,14.90
2022-10-08T21:38:55.359Z,14.65
2022-10-08T21:41:22.854Z,15.43
2022-10-08T21:43:50.944Z,14.80
2022-10-08T21:46:19.187Z,14.30
2022-10-08T21:48:46.321Z,15.35
2022-10-08T21:51:17.488Z,16.52
2022-10-08T21:53:45.384Z,15.95
2022-10-08T21:56:13.324Z,16.42
2022-10-08T21:58:47.899Z,14.80
2022-10-08T22:01:22.264Z,14.73
2022-10-08T22:03:49.807Z,14.55
2022-10-08T22:06:16.401Z,12.77
2022-10-08T22:08:43.032Z,13.13
2022-10-08T22:11:09.668Z,11.68
2022-10-08T22:13:36.275Z,12.68
2022-10-08T22:16:03.522Z,12.63
2022-10-08T22:18:31.241Z,11.63
2022-10-08T22:21:01.377Z,12.20
2022-10-08T22:23:28.610Z,14.00
2022-10-08T22:25:59.480Z,14.95
2022-10-08T22:28:26.321Z,14.93
2022-10-08T22:30:52.939Z,15.85
2022-10-08T22:33:19.709Z,14.15
2022-10-08T22:35:46.431Z,10.95
2022-10-08T22:38:13.356Z,11.30
2022-10-08T22:40:39.971Z,11.20
2022-10-08T22:43:06.726Z,12.88
2022-10-08T22:45:39.483Z,11.82
2022-10-08T22:48:06.119Z,14.48
2022-10-08T22:50:35.936Z,11.68
2022-10-08T22:53:02.549Z,11.65
2022-10-08T22:55:29.548Z,12.52
2022-10-08T22:57:56.528Z,12.38
2022-10-08T23:00:23.181Z,12.00
2022-10-08T23:02:50.333Z,11.50
2022-10-08T23:05:17.404Z,10.55
2022-10-08T23:07:44.020Z,12.82
2022-10-08T23:10:10.619Z,10.30
2022-10-08T23:12:37.204Z,11.90
2022-10-08T23:15:04.376Z,13.98
2022-10-08T23:17:30.984Z,14.13
2022-10-08T23:19:57.607Z,15.93
2022-10-08T23:22:25.049Z,19.23
2022-10-08T23:24:51.643Z,18.55
2022-10-08T23:27:18.247Z,13.52
2022-10-08T23:29:44.878Z,15.70
2022-10-08T23:32:11.554Z,16.55
2022-10-08T23:34:38.214Z,14.35
2022-10-08T23:37:04.813Z,11.18
2022-10-08T23:39:31.473Z,10.75
2022-10-08T23:41:58.068Z,10.70
2022-10-08T23:44:24.667Z,10.13
2022-10-08T23:46:51.296Z,11.18
2022-10-08T23:49:17.894Z,10.38
2022-10-08T23:51:44.489Z,11.30
2022-10-08T23:54:11.107Z,12.40
2022-10-08T23:56:37.750Z,12.73
2022-10-08T23:59:04.337Z,11.05
